Time;durP1;ratioP1;P1;durP2;ratioP2;P2;SDS_P1;SDS_P2;PMS_P1;PMS_P2;Temp;Humidity;BMP_temperature;BMP_pressure;BME280_temperature;BME280_humidity;BME280_pressure;Samples;Min_cycle;Max_cycle;Signal;HPM_P1;HPM_P2
2024/02/29 00:00:52;;;;;;;17.50;7.40;;;;;;;3.23;51.52;101241.92;107022;1253;60480;-70
2024/02/29 00:03:19;;;;;;;15.60;6.50;;;;;;;3.19;51.72;101245.23;106857;1253;60384;-70
2024/02/29 00:05:45;;;;;;;16.00;6.80;;;;;;;3.15;51.87;101245.50;106826;1258;64870;-70
2024/02/29 00:08:12;;;;;;;15.80;7.40;;;;;;;3.09;52.05;101244.34;106833;1252;60537;-70
2024/02/29 00:10:39;;;;;;;13.90;7.10;;;;;;;3.02;52.22;101248.41;107029;1255;63719;-70
2024/02/29 00:13:05;;;;;;;17.40;7.10;;;;;;;2.96;52.36;101246.88;107013;1253;60426;-70
2024/02/29 00:15:32;;;;;;;16.90;7.40;;;;;;;2.90;52.53;101253.33;107098;1253;59630;-70
2024/02/29 00:17:59;;;;;;;15.20;7.90;;;;;;;2.83;52.66;101254.95;106867;1257;65253;-70
2024/02/29 00:20:26;;;;;;;17.40;7.80;;;;;;;2.78;52.77;101257.58;107004;1253;60544;-70
2024/02/29 00:22:53;;;;;;;24.20;9.00;;;;;;;2.73;52.97;101260.17;106755;1253;64016;-70
2024/02/29 00:25:20;;;;;;;17.10;8.40;;;;;;;2.68;53.11;101260.52;107026;1253;60483;-70
2024/02/29 00:27:46;;;;;;;18.00;7.70;;;;;;;2.63;53.23;101262.08;106864;1252;60489;-70
2024/02/29 00:30:16;;;;;;;17.50;8.00;;;;;;;2.58;53.46;101260.66;106936;1253;64964;-70
2024/02/29 00:32:43;;;;;;;16.20;7.60;;;;;;;2.54;53.61;101263.03;106937;1253;60502;-70
2024/02/29 00:35:10;;;;;;;18.20;8.00;;;;;;;2.52;53.75;101271.11;106853;1258;62597;-70
2024/02/29 00:37:37;;;;;;;16.10;8.70;;;;;;;2.48;53.83;101276.77;106795;1253;60496;-70
2024/02/29 00:40:04;;;;;;;24.50;8.20;;;;;;;2.43;53.91;101277.98;106856;1253;60493;-70
2024/02/29 00:42:31;;;;;;;15.50;7.80;;;;;;;2.38;54.09;101275.04;106969;1253;65021;-70
2024/02/29 00:44:58;;;;;;;14.70;7.50;;;;;;;2.34;54.27;101271.86;106860;1253;60523;-70
2024/02/29 00:47:24;;;;;;;15.20;7.30;;;;;;;2.31;54.40;101264.80;106851;1253;64189;-70
2024/02/29 00:49:51;;;;;;;16.30;6.80;;;;;;;2.28;54.49;101264.73;106855;1253;60534;-70
2024/02/29 00:52:18;;;;;;;13.20;6.90;;;;;;;2.23;54.70;101267.30;107016;1253;60440;-70
2024/02/29 00:54:45;;;;;;;14.40;6.60;;;;;;;2.20;54.94;101265.86;106993;1253;65306;-70
2024/02/29 00:57:12;;;;;;;16.90;8.20;;;;;;;2.18;55.20;101263.45;107032;1252;60493;-70
2024/02/29 00:59:38;;;;;;;25.40;11.30;;;;;;;2.19;55.39;101257.02;107000;1255;62597;-70
2024/02/29 01:02:05;;;;;;;21.20;10.80;;;;;;;2.15;55.59;101252.28;107003;1253;59168;-70
2024/02/29 01:04:32;;;;;;;16.30;8.30;;;;;;;2.12;55.60;101250.45;107009;1253;58832;-70
2024/02/29 01:06:58;;;;;;;12.50;6.30;;;;;;;2.09;55.52;101251.94;106993;1253;65085;-70
2024/02/29 01:09:27;;;;;;;16.50;6.90;;;;;;;2.05;55.51;101254.84;106895;1253;60563;-70
2024/02/29 01:11:54;;;;;;;11.00;6.10;;;;;;;2.03;55.46;101254.90;106962;1253;63847;-70
2024/02/29 01:14:20;;;;;;;11.70;5.40;;;;;;;2.01;55.33;101251.46;106785;1252;60391;-70
2024/02/29 01:16:48;;;;;;;10.50;5.00;;;;;;;2.00;55.24;101246.65;106627;1253;60477;-70
2024/02/29 01:19:15;;;;;;;12.40;5.70;;;;;;;2.00;55.17;101245.77;106877;1253;65033;-70
2024/02/29 01:21:42;;;;;;;14.50;6.30;;;;;;;1.99;55.07;101251.54;107004;1254;60505;-70
2024/02/29 01:24:09;;;;;;;16.60;7.70;;;;;;;1.98;54.99;101260.79;106819;1253;63996;-70
2024/02/29 01:26:35;;;;;;;12.30;6.10;;;;;;;1.98;54.86;101263.22;106968;1252;60441;-70
2024/02/29 01:29:02;;;;;;;12.00;5.30;;;;;;;1.98;54.86;101267.02;106950;1253;60379;-71
2024/02/29 01:31:29;;;;;;;13.00;4.60;;;;;;;1.99;54.86;101275.17;106782;1258;66604;-70
2024/02/29 01:33:56;;;;;;;10.70;4.20;;;;;;;1.99;54.90;101278.11;106900;1253;60494;-70
2024/02/29 01:36:23;;;;;;;9.00;3.70;;;;;;;2.01;55.02;101279.09;106587;1261;62675;-70
2024/02/29 01:38:49;;;;;;;11.70;4.30;;;;;;;2.02;55.06;101279.76;106821;1253;60500;-70
2024/02/29 01:41:18;;;;;;;9.60;4.60;;;;;;;2.05;55.15;101278.33;107003;1252;60472;-70
2024/02/29 01:43:54;;;;;;;10.80;4.60;;;;;;;2.07;55.17;101277.04;107028;1253;65209;-70
2024/02/29 01:46:21;;;;;;;12.80;5.40;;;;;;;2.06;55.29;101269.92;107036;1253;58516;-70
2024/02/29 01:48:48;;;;;;;11.50;5.80;;;;;;;2.06;55.19;101267.84;106783;1253;63764;-70
2024/02/29 01:51:15;;;;;;;13.00;6.50;;;;;;;2.07;55.15;101267.10;106652;1252;60403;-70
2024/02/29 01:53:42;;;;;;;11.40;5.80;;;;;;;2.07;55.27;101266.23;106835;1253;60520;-70
2024/02/29 01:56:10;;;;;;;15.10;4.40;;;;;;;2.03;55.19;101260.27;107013;1253;63821;-70
2024/02/29 01:58:37;;;;;;;11.60;4.60;;;;;;;2.00;55.06;101258.27;107003;1253;60473;-70
2024/02/29 02:01:04;;;;;;;15.60;4.90;;;;;;;1.98;54.93;101254.36;106784;1251;64150;-70
2024/02/29 02:03:31;;;;;;;11.90;5.20;;;;;;;1.93;54.80;101252.77;106990;1253;60518;-70
2024/02/29 02:05:58;;;;;;;9.80;5.80;;;;;;;1.89;54.66;101255.99;106849;1258;60461;-70
2024/02/29 02:08:27;;;;;;;13.50;5.80;;;;;;;1.86;54.69;101263.77;106764;1253;63816;-69
2024/02/29 02:10:54;;;;;;;10.90;6.10;;;;;;;1.84;54.60;101267.98;106776;1253;60442;-70
2024/02/29 02:13:21;;;;;;;12.90;6.70;;;;;;;1.83;54.60;101266.43;106972;1252;62614;-70
2024/02/29 02:15:48;;;;;;;17.20;7.80;;;;;;;1.82;54.55;101262.48;106974;1253;60358;-70
2024/02/29 02:18:15;;;;;;;19.10;8.10;;;;;;;1.77;54.49;101257.59;106943;1258;60492;-70
2024/02/29 02:20:41;;;;;;;13.70;7.20;;;;;;;1.75;54.54;101257.83;106989;1252;63621;-70
2024/02/29 02:23:08;;;;;;;13.60;6.40;;;;;;;1.73;54.67;101257.86;106947;1255;60375;-70
2024/02/29 02:25:35;;;;;;;16.00;6.20;;;;;;;1.71;54.69;101254.80;106812;1253;62705;-70
2024/02/29 02:28:01;;;;;;;13.70;5.70;;;;;;;1.70;54.72;101256.38;106854;1253;60582;-70
2024/02/29 02:30:28;;;;;;;20.40;8.00;;;;;;;1.71;54.73;101251.16;107012;1252;60394;-70
2024/02/29 02:32:55;;;;;;;20.70;9.90;;;;;;;1.72;54.72;101252.86;106845;1253;65053;-69
2024/02/29 02:35:22;;;;;;;19.30;9.30;;;;;;;1.69;54.69;101253.45;106951;1255;60486;-70
2024/02/29 02:37:49;;;;;;;16.90;9.00;;;;;;;1.68;54.73;101257.15;106998;1253;63827;-70
2024/02/29 02:40:16;;;;;;;17.40;8.60;;;;;;;1.68;54.75;101261.67;106986;1253;59112;-70
2024/02/29 02:42:43;;;;;;;14.40;7.30;;;;;;;1.67;54.74;101263.58;107037;1253;60402;-70
2024/02/29 02:45:10;;;;;;;14.00;7.20;;;;;;;1.66;54.71;101263.96;106967;1253;64937;-70
2024/02/29 02:47:37;;;;;;;18.00;7.30;;;;;;;1.65;54.71;101261.42;106882;1253;60509;-70
2024/02/29 02:50:04;;;;;;;15.00;7.50;;;;;;;1.63;54.75;101265.79;106988;1253;62820;-70
2024/02/29 02:52:31;;;;;;;12.70;6.90;;;;;;;1.61;54.82;101264.10;106786;1252;60453;-70
2024/02/29 02:54:57;;;;;;;14.80;7.50;;;;;;;1.62;54.83;101255.58;106840;1253;60432;-70
2024/02/29 02:57:24;;;;;;;17.90;8.80;;;;;;;1.57;54.83;101257.62;106913;1253;65183;-70
2024/02/29 02:59:51;;;;;;;22.50;9.60;;;;;;;1.52;54.97;101260.18;106845;1255;60455;-69
2024/02/29 03:02:18;;;;;;;23.50;10.70;;;;;;;1.51;55.11;101259.70;106831;1253;63870;-69
2024/02/29 03:04:45;;;;;;;25.40;12.20;;;;;;;1.50;55.15;101257.46;107003;1253;60378;-70
2024/02/29 03:07:12;;;;;;;26.70;13.50;;;;;;;1.49;55.26;101255.24;107020;1253;59221;-70
2024/02/29 03:09:39;;;;;;;35.80;16.30;;;;;;;1.49;55.31;101251.27;106872;1258;65058;-70
2024/02/29 03:12:07;;;;;;;37.20;17.20;;;;;;;1.47;55.39;101252.36;106769;1253;58407;-70
2024/02/29 03:14:33;;;;;;;35.40;17.60;;;;;;;1.46;55.54;101251.02;106985;1252;72765;-69
2024/02/29 03:17:00;;;;;;;39.20;19.30;;;;;;;1.44;55.64;101248.10;106983;1253;60371;-70
2024/02/29 03:19:27;;;;;;;39.10;20.00;;;;;;;1.42;55.74;101250.08;107048;1253;60374;-70
2024/02/29 03:21:53;;;;;;;42.80;21.10;;;;;;;1.40;55.85;101252.38;107016;1253;65049;-70
2024/02/29 03:24:21;;;;;;;48.20;21.70;;;;;;;1.39;55.97;101248.92;106985;1253;58663;-70
2024/02/29 03:26:47;;;;;;;41.60;20.90;;;;;;;1.40;56.04;101244.73;106855;1253;63875;-70
2024/02/29 03:29:14;;;;;;;39.50;21.20;;;;;;;1.42;56.07;101245.02;107076;1253;60367;-70
2024/02/29 03:31:44;;;;;;;43.60;22.00;;;;;;;1.40;56.14;101247.69;106969;1253;60390;-70
2024/02/29 03:34:11;;;;;;;40.00;22.00;;;;;;;1.37;56.23;101246.91;106987;1253;65234;-70
2024/02/29 03:36:38;;;;;;;41.10;19.90;;;;;;;1.35;56.34;101248.52;106918;1258;60460;-70
2024/02/29 03:39:05;;;;;;;34.60;16.30;;;;;;;1.33;56.39;101247.52;106708;1260;63716;-71
2024/02/29 03:41:32;;;;;;;29.50;13.80;;;;;;;1.32;56.47;101246.87;107038;1254;60463;-70
2024/02/29 03:43:59;;;;;;;25.60;13.30;;;;;;;1.31;56.60;101245.67;106784;1253;60404;-70
2024/02/29 03:46:26;;;;;;;24.40;13.50;;;;;;;1.30;56.58;101242.76;106789;1253;64009;-70
2024/02/29 03:48:52;;;;;;;25.70;12.20;;;;;;;1.29;56.57;101249.21;106852;1253;60499;-69
2024/02/29 03:51:19;;;;;;;22.50;12.20;;;;;;;1.27;56.55;101243.90;106807;1253;63911;-70
2024/02/29 03:53:46;;;;;;;24.60;11.80;;;;;;;1.24;56.58;101246.58;106822;1253;60428;-69
2024/02/29 03:56:12;;;;;;;21.60;12.10;;;;;;;1.21;56.78;101246.83;106814;1253;60489;-70
2024/02/29 03:58:39;;;;;;;25.90;12.30;;;;;;;1.19;56.85;101246.71;106974;1253;65159;-70
2024/02/29 04:01:10;;;;;;;21.80;11.50;;;;;;;1.19;56.78;101245.69;107011;1253;60451;-70
2024/02/29 04:03:40;;;;;;;21.30;11.60;;;;;;;1.18;56.85;101245.86;106773;1253;62684;-69
2024/02/29 04:06:07;;;;;;;23.40;11.90;;;;;;;1.15;56.90;101239.34;106977;1253;59167;-69
2024/02/29 04:08:34;;;;;;;22.80;11.60;;;;;;;1.13;56.94;101236.44;106849;1252;60495;-68
2024/02/29 04:11:02;;;;;;;21.60;11.30;;;;;;;1.15;56.93;101234.66;107014;1253;63671;-69
2024/02/29 04:13:30;;;;;;;18.80;10.40;;;;;;;1.14;56.95;101238.67;106808;1253;60429;-68
2024/02/29 04:15:57;;;;;;;18.90;10.40;;;;;;;1.09;56.96;101238.11;106901;1253;63941;-68
2024/02/29 04:18:23;;;;;;;21.00;11.50;;;;;;;1.08;57.06;101240.42;106947;1253;60350;-68
2024/02/29 04:20:50;;;;;;;22.90;10.60;;;;;;;1.07;57.09;101241.65;107005;1255;60482;-68
2024/02/29 04:23:17;;;;;;;21.00;11.20;;;;;;;1.07;57.16;101238.88;107013;1253;64153;-68
2024/02/29 04:25:45;;;;;;;27.40;11.60;;;;;;;1.08;57.20;101243.70;106970;1252;60423;-69
2024/02/29 04:28:14;;;;;;;20.70;11.90;;;;;;;1.08;57.23;101245.45;106855;1253;63999;-68
2024/02/29 04:30:43;;;;;;;25.70;11.60;;;;;;;1.07;57.25;101249.46;106960;1253;59207;-69
2024/02/29 04:33:13;;;;;;;23.00;12.00;;;;;;;1.06;57.29;101248.44;106867;1253;60498;-69
2024/02/29 04:35:40;;;;;;;23.60;12.60;;;;;;;1.07;57.34;101244.60;106870;1253;65016;-69
2024/02/29 04:38:08;;;;;;;23.60;12.60;;;;;;;1.08;57.29;101249.45;106573;1253;285770;-69
2024/02/29 04:40:34;;;;;;;26.70;13.00;;;;;;;1.07;57.31;101249.47;106586;1253;63858;-69
2024/02/29 04:43:01;;;;;;;26.80;12.80;;;;;;;1.09;57.30;101250.81;106972;1253;60508;-70
2024/02/29 04:45:29;;;;;;;24.50;12.50;;;;;;;1.08;57.22;101253.77;106766;1253;60512;-70
2024/02/29 04:47:56;;;;;;;25.50;12.80;;;;;;;1.07;57.30;101257.44;106838;1253;65564;-69
2024/02/29 04:50:23;;;;;;;25.70;12.90;;;;;;;1.07;57.43;101256.55;106959;1257;60494;-69
2024/02/29 04:52:50;;;;;;;26.00;13.50;;;;;;;1.08;57.40;101260.00;106806;1254;62838;-69
2024/02/29 04:55:16;;;;;;;25.20;14.50;;;;;;;1.07;57.36;101266.64;106854;1253;60543;-70
2024/02/29 04:57:43;;;;;;;28.30;14.30;;;;;;;1.04;57.41;101269.11;106752;1253;60426;-69
2024/02/29 05:00:11;;;;;;;31.70;15.80;;;;;;;1.03;57.45;101265.85;106798;1253;65280;-69
2024/02/29 05:02:38;;;;;;;33.20;16.30;;;;;;;1.03;57.51;101268.48;106844;1253;60467;-70
2024/02/29 05:05:06;;;;;;;30.10;16.60;;;;;;;1.02;57.47;101270.23;107012;1253;63804;-69
2024/02/29 05:07:33;;;;;;;31.60;15.80;;;;;;;1.01;57.56;101270.93;106979;1253;58437;-69
2024/02/29 05:10:00;;;;;;;28.20;14.50;;;;;;;1.01;57.57;101271.28;106961;1255;59161;-69
2024/02/29 05:12:27;;;;;;;26.70;14.10;;;;;;;1.01;57.62;101270.59;106833;1257;65250;-69
2024/02/29 05:14:54;;;;;;;28.10;14.60;;;;;;;1.03;57.67;101267.59;106815;1258;60475;-69
2024/02/29 05:17:21;;;;;;;26.40;13.80;;;;;;;1.04;57.72;101268.43;106982;1256;62738;-69
2024/02/29 05:19:48;;;;;;;27.00;13.20;;;;;;;1.05;57.81;101268.92;106958;1252;60421;-69
2024/02/29 05:22:16;;;;;;;26.10;12.50;;;;;;;1.07;57.82;101271.31;106812;1257;59448;-70
2024/02/29 05:24:42;;;;;;;27.60;12.80;;;;;;;1.09;57.82;101268.83;106669;1260;65206;-69
2024/02/29 05:27:09;;;;;;;23.60;13.40;;;;;;;1.12;57.86;101261.80;106750;1260;60576;-69
2024/02/29 05:29:36;;;;;;;27.90;13.30;;;;;;;1.15;57.82;101262.58;106718;1253;64036;-69
2024/02/29 05:32:03;;;;;;;22.50;12.70;;;;;;;1.18;57.83;101267.73;106725;1256;60351;-69
2024/02/29 05:34:30;;;;;;;22.40;12.50;;;;;;;1.21;57.80;101270.41;106924;1254;60370;-69
2024/02/29 05:36:57;;;;;;;23.60;12.30;;;;;;;1.25;57.78;101269.80;106994;1253;65258;-69
2024/02/29 05:39:24;;;;;;;26.50;13.00;;;;;;;1.27;57.72;101265.94;106965;1253;60462;-69
2024/02/29 05:41:50;;;;;;;26.40;12.80;;;;;;;1.30;57.66;101265.83;106813;1253;63825;-69
2024/02/29 05:44:17;;;;;;;28.70;12.40;;;;;;;1.30;57.71;101269.14;106792;1256;60319;-69
2024/02/29 05:46:44;;;;;;;23.60;12.80;;;;;;;1.30;57.63;101271.23;106832;1253;61184;-69
2024/02/29 05:49:10;;;;;;;30.50;13.60;;;;;;;1.32;57.62;101275.52;106914;1256;64046;-69
2024/02/29 05:51:37;;;;;;;33.00;17.30;;;;;;;1.33;57.65;101278.24;106693;1253;60376;-69
2024/02/29 05:54:04;;;;;;;35.40;19.20;;;;;;;1.35;57.65;101283.58;106745;1253;64062;-69
2024/02/29 05:56:31;;;;;;;44.40;22.80;;;;;;;1.36;57.70;101283.05;106970;1256;60377;-69
2024/02/29 05:58:58;;;;;;;41.40;21.90;;;;;;;1.39;57.78;101282.95;106978;1252;60381;-69
2024/02/29 06:01:25;;;;;;;37.30;20.20;;;;;;;1.44;57.81;101278.82;106774;1258;65072;-69
2024/02/29 06:03:52;;;;;;;45.10;20.60;;;;;;;1.49;57.79;101277.13;106949;1251;60370;-70
2024/02/29 06:06:19;;;;;;;39.70;18.70;;;;;;;1.53;57.75;101277.86;106957;1255;63902;-69
2024/02/29 06:08:46;;;;;;;35.80;17.00;;;;;;;1.58;57.66;101281.93;107032;1253;60512;-69
2024/02/29 06:11:13;;;;;;;32.50;16.60;;;;;;;1.62;57.74;101276.93;106947;1256;59551;-70
2024/02/29 06:13:40;;;;;;;31.10;15.90;;;;;;;1.67;57.72;101270.70;106807;1260;65520;-69
2024/02/29 06:16:07;;;;;;;34.00;14.40;;;;;;;1.71;57.57;101270.59;106824;1253;60476;-70
2024/02/29 06:18:36;;;;;;;30.20;13.70;;;;;;;1.76;57.51;101272.04;106947;1255;62812;-70
2024/02/29 06:21:03;;;;;;;25.90;13.30;;;;;;;1.81;57.45;101268.91;106705;1254;60464;-70
2024/02/29 06:23:31;;;;;;;29.40;12.90;;;;;;;1.87;57.31;101268.39;106961;1252;60460;-70
2024/02/29 06:25:58;;;;;;;24.40;12.20;;;;;;;1.93;57.27;101270.14;106962;1253;63993;-69
2024/02/29 06:28:25;;;;;;;26.70;12.60;;;;;;;1.98;57.04;101272.23;106814;1254;60319;-69
2024/02/29 06:30:51;;;;;;;29.00;13.20;;;;;;;2.03;56.77;101275.41;106669;1254;64651;-69
2024/02/29 06:33:18;;;;;;;25.70;13.50;;;;;;;2.06;56.55;101272.38;106895;1255;60374;-69
2024/02/29 06:35:45;;;;;;;30.90;13.60;;;;;;;2.09;56.43;101274.17;106934;1253;60429;-69
2024/02/29 06:38:12;;;;;;;26.50;13.20;;;;;;;2.13;56.15;101277.70;106906;1254;67147;-69
2024/02/29 06:40:39;;;;;;;26.20;12.70;;;;;;;2.17;55.92;101276.71;106852;1252;60476;-69
2024/02/29 06:43:06;;;;;;;20.80;11.80;;;;;;;2.21;55.60;101280.59;106968;1254;62694;-69
2024/02/29 06:45:32;;;;;;;22.60;11.30;;;;;;;2.24;55.38;101279.11;106965;1256;60318;-69
2024/02/29 06:47:59;;;;;;;28.00;12.00;;;;;;;2.28;55.31;101278.98;106719;1254;60144;-69
2024/02/29 06:50:26;;;;;;;25.20;10.90;;;;;;;2.34;55.23;101278.80;106970;1254;65225;-69
2024/02/29 06:52:53;;;;;;;22.00;11.90;;;;;;;2.43;55.01;101280.98;106942;1253;60480;-69
2024/02/29 06:55:21;;;;;;;25.70;11.80;;;;;;;2.52;54.88;101286.41;106924;1254;65738;-69
2024/02/29 06:57:48;;;;;;;25.30;12.00;;;;;;;2.62;54.81;101286.27;106880;1253;60420;-69
2024/02/29 07:00:15;;;;;;;31.30;12.80;;;;;;;2.73;54.67;101289.39;106843;1255;60310;-69
2024/02/29 07:02:42;;;;;;;30.10;14.50;;;;;;;2.84;54.70;101295.45;106881;1253;65009;-69
2024/02/29 07:05:11;;;;;;;30.40;15.70;;;;;;;2.98;54.49;101298.33;106814;1258;60585;-70
2024/02/29 07:07:38;;;;;;;38.10;16.90;;;;;;;3.10;54.21;101296.50;106935;1254;64663;-69
2024/02/29 07:10:09;;;;;;;34.80;15.40;;;;;;;3.19;53.90;101290.28;106903;1254;60302;-69
2024/02/29 07:12:36;;;;;;;36.10;17.20;;;;;;;3.28;53.82;101295.20;106891;1254;60413;-69
2024/02/29 07:15:03;;;;;;;36.60;17.20;;;;;;;3.39;53.63;101294.13;107363;1253;65744;-69
2024/02/29 07:17:30;;;;;;;33.90;17.50;;;;;;;3.49;53.31;101296.40;107293;1256;60464;-69
2024/02/29 07:19:58;;;;;;;31.40;17.10;;;;;;;3.57;53.05;101299.23;107191;1254;62802;-70
2024/02/29 07:22:25;;;;;;;30.00;16.10;;;;;;;3.65;52.93;101299.45;107000;1254;59287;-70
2024/02/29 07:24:52;;;;;;;37.20;18.30;;;;;;;3.77;52.75;101297.46;107010;1254;60585;-69
2024/02/29 07:27:18;;;;;;;43.80;19.30;;;;;;;3.88;52.39;101299.31;107035;1253;67059;-70
2024/02/29 07:29:46;;;;;;;42.90;19.60;;;;;;;3.96;52.28;101296.91;106758;1254;60494;-69
2024/02/29 07:32:13;;;;;;;29.70;18.30;;;;;;;4.06;52.33;101294.12;106979;1254;63807;-70
2024/02/29 07:34:40;;;;;;;34.30;19.20;;;;;;;4.17;51.99;101298.58;106919;1252;60480;-69
2024/02/29 07:37:07;;;;;;;35.60;20.00;;;;;;;4.28;51.77;101295.38;107024;1254;60448;-69
2024/02/29 07:39:34;;;;;;;39.20;23.30;;;;;;;4.40;51.69;101296.10;106994;1254;67046;-69
2024/02/29 07:42:01;;;;;;;46.90;23.30;;;;;;;4.52;51.30;101295.14;107022;1254;60448;-69
2024/02/29 07:44:29;;;;;;;42.60;25.10;;;;;;;4.60;50.69;101294.09;106997;1252;62837;-69
2024/02/29 07:46:55;;;;;;;41.30;22.70;;;;;;;4.67;50.63;101286.67;106961;1254;60452;-70
2024/02/29 07:49:23;;;;;;;29.80;17.50;;;;;;;4.75;50.04;101282.66;106972;1254;60378;-70
2024/02/29 07:51:51;;;;;;;33.10;18.30;;;;;;;4.78;49.53;101281.35;106811;1253;66932;-70
2024/02/29 07:54:19;;;;;;;28.60;15.00;;;;;;;4.80;49.50;101281.05;107023;1254;60515;-70
2024/02/29 07:56:46;;;;;;;23.60;12.70;;;;;;;4.85;49.38;101282.07;106995;1253;65854;-70
2024/02/29 07:59:12;;;;;;;21.00;11.80;;;;;;;4.96;49.31;101285.47;106737;1255;60477;-71
2024/02/29 08:01:39;;;;;;;25.30;13.00;;;;;;;5.04;48.96;101283.58;106833;1254;60407;-71
2024/02/29 08:04:06;;;;;;;24.20;13.80;;;;;;;5.12;48.96;101280.95;107003;1253;66646;-71
2024/02/29 08:06:33;;;;;;;25.20;14.90;;;;;;;5.21;48.74;101283.73;106996;1253;60515;-72
2024/02/29 08:09:01;;;;;;;29.40;14.90;;;;;;;5.27;48.81;101281.88;106989;1252;65880;-75
2024/02/29 08:11:28;;;;;;;34.40;17.00;;;;;;;5.37;48.85;101284.06;106840;1257;61418;-72
2024/02/29 08:19:13;;;;;;;24.70;12.90;;;;;;;5.67;48.47;101279.24;106966;1254;65352;-69
2024/02/29 08:21:40;;;;;;;30.10;13.50;;;;;;;5.77;48.25;101274.26;106948;1257;60452;-70
2024/02/29 08:24:07;;;;;;;26.50;14.10;;;;;;;5.83;48.25;101269.64;106903;1254;64709;-66
2024/02/29 08:26:34;;;;;;;28.90;14.60;;;;;;;5.87;48.12;101262.80;106836;1253;60287;-67
2024/02/29 08:29:01;;;;;;;35.90;19.00;;;;;;;5.91;48.21;101259.15;106910;1253;60779;-67
2024/02/29 08:31:28;;;;;;;39.60;20.20;;;;;;;5.99;48.18;101251.95;106837;1253;67080;-69
2024/02/29 08:33:57;;;;;;;62.00;27.50;;;;;;;6.07;48.20;101251.09;106789;1253;60432;-71
2024/02/29 08:36:25;;;;;;;52.70;24.60;;;;;;;6.13;48.23;101244.67;106673;1254;65351;-68
2024/02/29 08:38:52;;;;;;;48.60;23.20;;;;;;;6.23;48.33;101241.89;106870;1254;60496;-70
2024/02/29 08:41:19;;;;;;;43.20;21.30;;;;;;;6.35;48.29;101237.14;106957;1254;60549;-66
2024/02/29 08:48:21;;;;;;;35.70;14.70;;;;;;;6.61;48.45;101233.24;106990;1254;60381;-69
2024/02/29 08:50:50;;;;;;;37.00;14.10;;;;;;;6.74;48.22;101230.86;106906;1256;65553;-67
2024/02/29 08:53:17;;;;;;;26.60;12.70;;;;;;;6.82;48.12;101230.60;106660;1255;60572;-68
2024/02/29 08:55:44;;;;;;;25.80;12.90;;;;;;;6.92;48.11;101228.71;106825;1254;61109;-69
2024/02/29 08:58:11;;;;;;;23.90;13.10;;;;;;;7.03;47.95;101226.42;106721;1254;66032;-68
2024/02/29 09:00:38;;;;;;;28.70;12.40;;;;;;;7.11;47.58;101229.86;106969;1254;60533;-68
2024/02/29 09:03:07;;;;;;;28.50;12.50;;;;;;;7.12;47.35;101225.40;106939;1254;65825;-69
2024/02/29 09:05:34;;;;;;;28.40;15.00;;;;;;;7.16;47.47;101225.21;106872;1253;60360;-68
2024/02/29 09:08:01;;;;;;;26.00;13.20;;;;;;;7.24;47.48;101229.71;106895;1253;60716;-69
2024/02/29 09:10:29;;;;;;;24.70;12.00;;;;;;;7.32;47.28;101226.48;106924;1254;65827;-69
2024/02/29 09:12:57;;;;;;;26.50;13.60;;;;;;;7.41;46.97;101230.05;106892;1255;60490;-68
2024/02/29 09:15:24;;;;;;;26.70;13.60;;;;;;;7.47;47.00;101235.17;106967;1254;65557;-66
2024/02/29 09:17:51;;;;;;;32.20;12.10;;;;;;;7.57;47.10;101236.55;104520;1256;60534;-68
2024/02/29 09:20:18;;;;;;;31.70;11.80;;;;;;;7.73;46.88;101237.30;104331;1257;59582;-66
2024/02/29 09:22:45;;;;;;;35.50;13.80;;;;;;;7.86;46.22;101237.80;104478;1254;65740;-67
2024/02/29 09:25:12;;;;;;;31.80;13.10;;;;;;;7.88;45.68;101236.48;104618;1254;60521;-67
2024/02/29 09:27:39;;;;;;;25.00;11.40;;;;;;;7.86;45.72;101238.69;104621;1254;73075;-68
2024/02/29 09:30:07;;;;;;;30.40;12.60;;;;;;;7.88;45.91;101232.63;104740;1257;60391;-70
2024/02/29 09:32:35;;;;;;;24.10;11.10;;;;;;;7.95;45.97;101230.63;106891;1254;60616;-69
2024/02/29 09:35:03;;;;;;;30.50;13.40;;;;;;;8.04;45.69;101228.91;106855;1257;75241;-69
2024/02/29 09:37:30;;;;;;;29.60;12.70;;;;;;;8.07;45.43;101229.82;106869;1254;60476;-68
2024/02/29 09:39:57;;;;;;;30.80;12.50;;;;;;;8.09;45.47;101233.02;109311;1254;65299;-71
2024/02/29 09:42:27;;;;;;;31.10;11.30;;;;;;;8.17;45.32;101232.77;109090;1253;59032;-70
2024/02/29 09:44:54;;;;;;;24.70;11.80;;;;;;;8.23;45.21;101229.79;109115;1252;58314;-70
2024/02/29 09:47:22;;;;;;;30.70;12.20;;;;;;;8.25;45.24;101226.00;109231;1254;66838;-71
2024/02/29 09:49:50;;;;;;;22.20;11.40;;;;;;;8.30;44.97;101226.07;109387;1253;59010;-71
2024/02/29 09:52:26;;;;;;;24.30;10.80;;;;;;;8.34;45.07;101217.42;109258;1254;65735;-71
2024/02/29 09:54:54;;;;;;;26.50;12.50;;;;;;;8.43;45.06;101211.64;109113;1252;59171;-70
2024/02/29 09:57:22;;;;;;;27.20;13.60;;;;;;;8.58;45.24;101211.52;108788;1254;59297;-72
2024/02/29 09:59:49;;;;;;;33.70;12.90;;;;;;;8.75;45.89;101209.44;106928;1254;67704;-70
2024/02/29 10:02:16;;;;;;;27.40;14.10;;;;;;;8.95;46.19;101208.09;106848;1254;61141;-72
2024/02/29 10:04:43;;;;;;;25.50;13.30;;;;;;;9.08;45.87;101202.89;106909;1254;65864;-68
2024/02/29 10:12:04;;;;;;;26.60;13.30;;;;;;;9.44;45.70;101204.92;106959;1254;61164;-74
2024/02/29 10:19:00;;;;;;;;;;;;;;;9.96;45.62;101208.68;106901;1254;61161;-73
2024/02/29 10:21:27;;;;;;;20.20;11.80;;;;;;;10.21;45.41;101206.98;106886;1253;71992;-73
2024/02/29 10:23:55;;;;;;;21.80;12.20;;;;;;;10.38;44.97;101208.70;106698;1254;61259;-73
2024/02/29 10:26:22;;;;;;;21.90;11.10;;;;;;;10.56;44.83;101204.36;106758;1257;61334;-73
2024/02/29 10:28:50;;;;;;;12.50;8.00;;;;;;;10.76;43.64;101204.92;106582;1254;67876;-73
2024/02/29 10:31:17;;;;;;;18.70;10.50;;;;;;;10.87;42.36;101196.24;106808;1253;61298;-73
2024/02/29 10:42:19;;;;;;;18.90;11.10;;;;;;;11.05;43.25;101185.69;106878;1254;61133;-73
2024/02/29 10:44:46;;;;;;;22.70;11.60;;;;;;;11.24;43.19;101184.94;106788;1253;67988;-73
2024/02/29 10:47:13;;;;;;;19.30;12.40;;;;;;;11.40;42.57;101183.08;106865;1257;61256;-73
2024/02/29 10:49:47;;;;;;;20.70;12.70;;;;;;;11.50;42.59;101185.73;106673;1253;65862;-73
2024/02/29 10:52:26;;;;;;;22.40;12.90;;;;;;;11.66;43.02;101182.98;106869;1253;61106;-73
2024/02/29 10:54:57;;;;;;;21.40;12.30;;;;;;;11.94;42.65;101187.03;106842;1254;59375;-73
2024/02/29 10:57:26;;;;;;;22.20;11.50;;;;;;;12.16;42.19;101176.25;106704;1254;65588;-72
2024/02/29 10:59:58;;;;;;;20.20;12.30;;;;;;;12.30;41.72;101170.08;106836;1254;61118;-72
2024/02/29 11:02:26;;;;;;;21.50;12.60;;;;;;;12.31;41.39;101170.52;106832;1254;65820;-73
2024/02/29 11:04:52;;;;;;;24.10;11.50;;;;;;;12.32;41.26;101169.36;106668;1253;61282;-72
2024/02/29 11:07:20;;;;;;;21.30;11.70;;;;;;;12.36;41.12;101165.38;106838;1258;61328;-72
2024/02/29 11:09:47;;;;;;;20.00;11.60;;;;;;;12.37;40.81;101160.08;106818;1253;67914;-71
2024/02/29 11:12:15;;;;;;;21.50;11.40;;;;;;;12.36;40.95;101158.30;106905;1254;61269;-72
2024/02/29 11:14:43;;;;;;;21.40;12.20;;;;;;;12.48;41.13;101157.23;106921;1253;65834;-73
2024/02/29 11:17:12;;;;;;;26.30;12.40;;;;;;;12.62;41.18;101152.53;106809;1253;61285;-72
2024/02/29 11:19:39;;;;;;;19.80;12.10;;;;;;;12.72;40.99;101150.89;106854;1254;61248;-73
2024/02/29 11:22:30;;;;;;;20.00;11.60;;;;;;;12.85;40.86;101151.80;106890;1253;67746;-73
2024/02/29 11:24:57;;;;;;;23.50;11.20;;;;;;;13.02;40.74;101152.78;106691;1260;61122;-73
2024/02/29 11:27:29;;;;;;;25.70;12.00;;;;;;;13.13;40.66;101147.11;106909;1253;64506;-73
2024/02/29 11:30:00;;;;;;;22.90;11.90;;;;;;;13.24;40.51;101151.64;106855;1253;61313;-73
2024/02/29 11:32:36;;;;;;;24.40;11.50;;;;;;;13.27;40.46;101148.73;106961;1253;61168;-73
2024/02/29 11:35:04;;;;;;;21.00;12.30;;;;;;;13.34;40.01;101145.53;106912;1253;67637;-73
2024/02/29 11:37:31;;;;;;;19.10;12.00;;;;;;;13.43;39.83;101145.48;106964;1254;61133;-73
2024/02/29 11:40:04;;;;;;;21.10;12.00;;;;;;;13.52;39.49;101144.13;106877;1253;66147;-73